Time;durP1;ratioP1;P1;durP2;ratioP2;P2;SDS_P1;SDS_P2;PMS_P1;PMS_P2;Temp;Humidity;BMP_temperature;BMP_pressure;BME280_temperature;BME280_humidity;BME280_pressure;Samples;Min_cycle;Max_cycle;Signal;HPM_P1;HPM_P2
2023/07/24 00:00:07;;;;;;;9.20;5.00;;;;;;;17.63;100.00;100160.76;88200;1269;138364;-71
2023/07/24 00:02:10;;;;;;;10.00;4.90;;;;;;;17.60;100.00;100156.64;88943;1254;24208;-72
2023/07/24 00:04:11;;;;;;;5.90;5.30;;;;;;;17.58;100.00;100152.60;88941;1270;138994;-70
2023/07/24 00:06:13;;;;;;;6.20;5.00;;;;;;;17.58;100.00;100157.88;88184;1269;22569;-72
2023/07/24 00:08:15;;;;;;;14.50;7.20;;;;;;;17.55;100.00;100154.88;88112;1266;138527;-74
2023/07/24 00:10:16;;;;;;;10.30;4.80;;;;;;;17.52;100.00;100150.98;89188;1265;22604;-71
2023/07/24 00:12:18;;;;;;;7.30;5.80;;;;;;;17.50;100.00;100149.34;88151;1269;138696;-71
2023/07/24 00:14:20;;;;;;;6.10;5.50;;;;;;;17.48;100.00;100146.60;88296;1274;22583;-72
2023/07/24 00:16:22;;;;;;;6.50;5.90;;;;;;;17.46;100.00;100145.31;88167;1273;140685;-72
2023/07/24 00:18:24;;;;;;;9.70;6.00;;;;;;;17.44;100.00;100145.05;87891;1270;22559;-71
2023/07/24 00:20:26;;;;;;;5.90;5.20;;;;;;;17.43;100.00;100143.30;87934;1270;138605;-71
2023/07/24 00:22:27;;;;;;;9.10;6.50;;;;;;;17.45;100.00;100145.29;88716;1273;25545;-72
2023/07/24 00:24:31;;;;;;;8.10;5.80;;;;;;;17.46;100.00;100143.00;88061;1270;139784;-70
2023/07/24 00:26:32;;;;;;;10.40;5.80;;;;;;;17.45;100.00;100142.39;88299;1270;25589;-71
2023/07/24 00:28:34;;;;;;;5.90;5.30;;;;;;;17.37;100.00;100130.70;87918;1254;138670;-71
2023/07/24 00:30:36;;;;;;;5.40;4.90;;;;;;;17.35;100.00;100125.05;88206;1276;25420;-71
2023/07/24 00:32:38;;;;;;;5.80;5.30;;;;;;;17.41;100.00;100136.92;91287;1269;137942;-71
2023/07/24 00:34:40;;;;;;;11.50;6.20;;;;;;;17.41;100.00;100134.11;91104;1271;22323;-71
2023/07/24 00:36:42;;;;;;;6.80;5.30;;;;;;;17.41;100.00;100133.95;91291;1272;138633;-71
2023/07/24 00:38:44;;;;;;;5.50;5.10;;;;;;;17.41;100.00;100132.71;91205;1266;22438;-71
2023/07/24 00:40:48;;;;;;;5.50;5.00;;;;;;;17.42;100.00;100130.60;91281;1273;137902;-71
2023/07/24 00:42:50;;;;;;;5.70;5.20;;;;;;;17.44;100.00;100132.77;91291;1270;22944;-71
2023/07/24 00:44:51;;;;;;;6.20;5.60;;;;;;;17.44;100.00;100129.44;91286;1273;139088;-70
2023/07/24 00:46:54;;;;;;;5.20;4.80;;;;;;;17.44;100.00;100128.08;91406;1270;22240;-70
2023/07/24 00:48:55;;;;;;;5.50;5.00;;;;;;;17.43;100.00;100129.47;91267;1257;137949;-71
2023/07/24 00:50:57;;;;;;;6.90;5.20;;;;;;;17.42;100.00;100126.54;91274;1256;22324;-72
2023/07/24 00:52:59;;;;;;;5.30;4.90;;;;;;;17.41;100.00;100123.82;91283;1263;137952;-72
2023/07/24 00:55:01;;;;;;;6.00;5.50;;;;;;;17.42;100.00;100121.95;91253;1259;22233;-72
2023/07/24 00:57:04;;;;;;;5.80;5.30;;;;;;;17.42;100.00;100121.10;91229;1275;138030;-71
2023/07/24 00:59:06;;;;;;;5.10;4.70;;;;;;;17.44;100.00;100119.29;91047;1273;22975;-71
2023/07/24 01:01:10;;;;;;;6.90;5.30;;;;;;;17.44;100.00;100121.47;91216;1269;137795;-69
2023/07/24 01:03:12;;;;;;;6.80;5.10;;;;;;;17.47;100.00;100120.02;91218;1272;22896;-69
2023/07/24 01:05:15;;;;;;;5.50;4.50;;;;;;;17.47;100.00;100117.69;91194;1267;139110;-70
2023/07/24 01:07:17;;;;;;;6.90;5.40;;;;;;;17.47;100.00;100116.56;91388;1270;22228;-72
2023/07/24 01:09:18;;;;;;;5.20;4.80;;;;;;;17.46;100.00;100115.08;91137;1273;138501;-72
2023/07/24 01:11:29;;;;;;;5.50;5.10;;;;;;;17.44;100.00;100114.30;91251;1270;22379;-71
2023/07/24 01:13:36;;;;;;;6.50;4.70;;;;;;;17.42;100.00;100113.73;91145;1275;138239;-72
2023/07/24 01:15:43;;;;;;;8.70;5.20;;;;;;;17.41;100.00;100114.45;91204;1271;22340;-71
2023/07/24 01:17:58;;;;;;;6.20;5.20;;;;;;;17.40;100.00;100113.77;91179;1276;140772;-73
2023/07/24 01:20:03;;;;;;;5.70;4.70;;;;;;;17.38;100.00;100114.27;91240;1270;22325;-71
2023/07/24 01:22:27;;;;;;;6.40;5.40;;;;;;;17.36;100.00;100114.77;91009;1275;22256;-72
2023/07/24 01:24:36;;;;;;;7.30;5.70;;;;;;;17.35;100.00;100115.95;91321;1269;138005;-71
2023/07/24 01:26:38;;;;;;;4.90;4.50;;;;;;;17.31;100.00;100114.15;91428;1269;22772;-71
2023/07/24 01:28:40;;;;;;;5.10;4.70;;;;;;;17.30;100.00;100113.30;91229;1270;139643;-71
2023/07/24 01:30:42;;;;;;;6.50;4.60;;;;;;;17.29;100.00;100111.21;91395;1269;22468;-71
2023/07/24 01:32:43;;;;;;;5.60;5.10;;;;;;;17.29;100.00;100115.23;91239;1257;138079;-72
2023/07/24 01:34:46;;;;;;;4.40;4.00;;;;;;;17.28;100.00;100116.34;91406;1270;22320;-70
2023/07/24 01:36:49;;;;;;;5.50;4.10;;;;;;;17.27;100.00;100113.73;91221;1270;139233;-71
2023/07/24 01:38:51;;;;;;;6.10;4.20;;;;;;;17.26;100.00;100112.75;91512;1269;22198;-71
2023/07/24 01:40:54;;;;;;;6.60;5.10;;;;;;;17.25;100.00;100111.76;91283;1269;138871;-71
2023/07/24 01:42:59;;;;;;;5.30;4.90;;;;;;;17.24;100.00;100117.11;91364;1269;22394;-71
2023/07/24 01:45:03;;;;;;;4.60;4.20;;;;;;;17.23;100.00;100119.31;91138;1272;139590;-70
2023/07/24 01:47:04;;;;;;;5.20;4.80;;;;;;;17.23;100.00;100122.70;91300;1270;22235;-70
2023/07/24 01:49:06;;;;;;;5.00;4.60;;;;;;;17.22;100.00;100126.08;91215;1263;138963;-70
2023/07/24 01:51:08;;;;;;;5.30;5.00;;;;;;;17.21;100.00;100120.61;91208;1270;22229;-70
2023/07/24 01:53:10;;;;;;;4.90;4.40;;;;;;;17.19;100.00;100122.63;91217;1271;138545;-69
2023/07/24 01:55:11;;;;;;;4.70;4.40;;;;;;;17.19;100.00;100123.80;91160;1256;23160;-70
2023/07/24 01:57:13;;;;;;;6.60;4.20;;;;;;;17.19;100.00;100127.90;91134;1270;138123;-70
2023/07/24 01:59:15;;;;;;;4.80;4.20;;;;;;;17.19;100.00;100128.73;91288;1263;22218;-69
2023/07/24 02:01:17;;;;;;;5.30;4.10;;;;;;;17.15;100.00;100128.52;91303;1269;142075;-70
2023/07/24 02:03:19;;;;;;;4.00;3.80;;;;;;;17.06;100.00;100123.30;91412;1270;22221;-70
2023/07/24 02:05:21;;;;;;;5.30;4.50;;;;;;;17.09;100.00;100135.77;91336;1270;139161;-70
2023/07/24 02:07:23;;;;;;;4.60;4.00;;;;;;;17.05;100.00;100134.60;91361;1271;22349;-70
2023/07/24 02:09:25;;;;;;;5.20;4.80;;;;;;;17.02;100.00;100135.72;91207;1260;139677;-70
2023/07/24 02:11:27;;;;;;;4.00;3.70;;;;;;;17.00;100.00;100134.27;91261;1271;22222;-69
2023/07/24 02:13:29;;;;;;;4.90;4.60;;;;;;;16.99;100.00;100138.23;91011;1272;138273;-70
2023/07/24 02:15:30;;;;;;;5.70;3.50;;;;;;;16.97;100.00;100136.11;91249;1270;22309;-71
2023/07/24 02:17:32;;;;;;;4.40;4.10;;;;;;;16.98;100.00;100136.98;91153;1270;139383;-68
2023/07/24 02:19:34;;;;;;;4.50;4.20;;;;;;;16.97;100.00;100139.48;91243;1270;23092;-69
2023/07/24 02:21:36;;;;;;;4.10;3.80;;;;;;;16.95;100.00;100140.73;91161;1271;139555;-70
2023/07/24 02:23:37;;;;;;;5.50;5.00;;;;;;;16.95;100.00;100138.96;91236;1271;22317;-70
2023/07/24 02:25:39;;;;;;;4.90;3.50;;;;;;;16.96;100.00;100140.75;91149;1275;138757;-70
2023/07/24 02:27:41;;;;;;;4.80;4.50;;;;;;;16.96;100.00;100143.55;91253;1272;22937;-70
2023/07/24 02:29:42;;;;;;;4.60;4.20;;;;;;;16.96;100.00;100144.75;91044;1272;139126;-69
2023/07/24 02:31:45;;;;;;;4.90;4.20;;;;;;;16.96;100.00;100141.98;91135;1263;22317;-72
2023/07/24 02:33:46;;;;;;;4.60;4.30;;;;;;;16.96;100.00;100142.30;91100;1270;139686;-72
2023/07/24 02:35:51;;;;;;;5.20;3.60;;;;;;;16.96;100.00;100144.63;91313;1271;22196;-72
2023/07/24 02:37:52;;;;;;;4.50;4.20;;;;;;;16.96;100.00;100144.75;91195;1273;139196;-72
2023/07/24 02:39:54;;;;;;;4.80;4.20;;;;;;;16.97;100.00;100146.25;91350;1270;22972;-72
2023/07/24 02:41:56;;;;;;;4.60;4.10;;;;;;;16.96;100.00;100149.55;91028;1273;138618;-71
2023/07/24 02:43:58;;;;;;;4.70;4.00;;;;;;;16.98;100.00;100150.59;91277;1263;23174;-71
2023/07/24 02:46:01;;;;;;;4.90;3.80;;;;;;;17.00;100.00;100148.64;91212;1270;138295;-71
2023/07/24 02:48:03;;;;;;;3.70;3.50;;;;;;;17.03;100.00;100149.75;91052;1272;139496;-70
2023/07/24 02:50:06;;;;;;;3.50;3.30;;;;;;;17.06;100.00;100149.64;91256;1272;22996;-70
2023/07/24 02:52:07;;;;;;;3.50;3.30;;;;;;;17.10;100.00;100147.84;91143;1263;139734;-70
2023/07/24 02:54:09;;;;;;;6.20;3.30;;;;;;;17.14;100.00;100145.56;91223;1270;22916;-70
2023/07/24 02:56:11;;;;;;;4.40;3.60;;;;;;;17.19;100.00;100146.76;91070;1256;138791;-71
2023/07/24 02:58:13;;;;;;;6.00;4.10;;;;;;;17.25;100.00;100147.09;91096;1274;23051;-71
2023/07/24 03:00:15;;;;;;;6.00;4.20;;;;;;;17.32;100.00;100144.27;91041;1271;138349;-70
2023/07/24 03:02:17;;;;;;;4.50;3.90;;;;;;;17.44;100.00;100144.04;91208;1270;22206;-71
2023/07/24 03:04:19;;;;;;;4.20;3.90;;;;;;;17.69;100.00;100144.46;91105;1270;139995;-70
2023/07/24 03:06:21;;;;;;;4.80;3.60;;;;;;;18.04;100.00;100140.92;91276;1270;22212;-70
2023/07/24 03:08:23;;;;;;;3.90;3.20;;;;;;;18.46;100.00;100142.14;91008;1272;139911;-70
2023/07/24 03:10:25;;;;;;;3.00;2.80;;;;;;;18.90;100.00;100144.71;91194;1255;22229;-70
2023/07/24 03:12:27;;;;;;;7.70;4.00;;;;;;;19.35;100.00;100143.61;91133;1270;138019;-71
2023/07/24 03:14:28;;;;;;;3.30;2.30;;;;;;;19.79;98.84;100142.14;91150;1265;22208;-69
2023/07/24 03:16:30;;;;;;;3.40;2.70;;;;;;;20.13;93.81;100145.77;90944;1271;137500;-69
2023/07/24 03:18:32;;;;;;;3.10;2.90;;;;;;;20.40;90.12;100144.50;91186;1277;22398;-71
2023/07/24 03:20:34;;;;;;;4.40;2.50;;;;;;;20.61;85.67;100141.55;91022;1260;137668;-70
2023/07/24 03:22:35;;;;;;;4.10;2.80;;;;;;;20.75;83.13;100138.83;91296;1270;22332;-71
2023/07/24 03:24:37;;;;;;;2.60;2.40;;;;;;;20.86;79.73;100135.71;91125;1270;138309;-70
2023/07/24 03:26:39;;;;;;;3.60;3.00;;;;;;;20.93;78.17;100133.48;91297;1270;22245;-71
2023/07/24 03:28:41;;;;;;;3.70;2.60;;;;;;;21.08;77.66;100131.55;91154;1272;138794;-71
2023/07/24 03:30:42;;;;;;;3.70;3.00;;;;;;;21.24;77.11;100136.89;91295;1270;22237;-71
2023/07/24 03:32:45;;;;;;;3.40;2.40;;;;;;;21.46;75.82;100133.09;91149;1271;137332;-70
2023/07/24 03:34:47;;;;;;;8.30;2.50;;;;;;;21.73;74.16;100127.93;91319;1270;22335;-70
2023/07/24 03:36:48;;;;;;;4.80;2.30;;;;;;;22.02;72.57;100129.11;91155;1270;138916;-70
2023/07/24 03:38:50;;;;;;;2.30;2.20;;;;;;;22.33;70.96;100126.66;91208;1270;22369;-70
2023/07/24 03:40:52;;;;;;;2.30;2.20;;;;;;;22.66;69.38;100126.59;91114;1256;137514;-70
2023/07/24 03:42:53;;;;;;;4.30;2.70;;;;;;;22.92;66.75;100122.47;91154;1272;22346;-69
2023/07/24 03:44:57;;;;;;;1.70;1.60;;;;;;;23.02;65.10;100119.52;91163;1253;139455;-69
2023/07/24 03:46:58;;;;;;;4.80;2.30;;;;;;;23.05;64.57;100120.50;91317;1272;22463;-70
2023/07/24 03:49:00;;;;;;;1.70;1.50;;;;;;;23.01;63.85;100118.42;91066;1260;137299;-70
2023/07/24 03:51:03;;;;;;;1.70;1.50;;;;;;;22.94;63.26;100118.66;91248;1270;22459;-70
2023/07/24 03:53:04;;;;;;;1.50;1.40;;;;;;;22.75;62.92;100115.72;91184;1269;137235;-70
2023/07/24 03:55:07;;;;;;;2.40;1.70;;;;;;;22.49;63.20;100113.25;91272;1273;22100;-71
2023/07/24 03:57:09;;;;;;;3.10;1.60;;;;;;;22.30;64.53;100111.40;91132;1269;138485;-71
2023/07/24 03:59:11;;;;;;;3.20;1.80;;;;;;;22.21;64.63;100111.55;91100;1260;22929;-70
2023/07/24 04:01:13;;;;;;;3.60;1.50;;;;;;;22.26;64.96;100107.86;91026;1270;137583;-70
2023/07/24 04:03:16;;;;;;;2.90;1.90;;;;;;;22.34;64.28;100107.55;91088;1271;22994;-70
2023/07/24 04:05:18;;;;;;;4.10;1.70;;;;;;;22.49;63.63;100104.52;91050;1270;151163;-71
2023/07/24 04:07:20;;;;;;;2.40;1.30;;;;;;;22.72;62.84;100102.30;91194;1270;22334;-70
2023/07/24 04:09:21;;;;;;;3.70;2.30;;;;;;;22.95;62.11;100098.48;91123;1270;137422;-71
2023/07/24 04:11:23;;;;;;;1.30;1.10;;;;;;;23.22;60.82;100098.98;91141;1271;23058;-70
2023/07/24 04:13:25;;;;;;;4.10;1.40;;;;;;;23.49;58.68;100099.61;91104;1270;137210;-71
2023/07/24 04:15:26;;;;;;;2.20;1.50;;;;;;;23.71;58.59;100097.47;91109;1271;22379;-71
2023/07/24 04:17:28;;;;;;;1.40;1.30;;;;;;;23.86;57.75;100088.74;91004;1271;138495;-71
2023/07/24 04:19:30;;;;;;;3.30;1.40;;;;;;;24.12;57.04;100099.01;91165;1270;22353;-72
2023/07/24 04:21:31;;;;;;;2.40;1.30;;;;;;;24.26;55.62;100098.17;90997;1270;137711;-71
2023/07/24 04:23:33;;;;;;;3.30;1.10;;;;;;;24.37;54.97;100094.38;91170;1271;23018;-71
2023/07/24 04:25:35;;;;;;;4.50;1.40;;;;;;;24.51;54.24;100095.67;91060;1270;137225;-72
2023/07/24 04:27:36;;;;;;;3.40;1.30;;;;;;;24.68;53.53;100097.34;91209;1270;22292;-71
2023/07/24 04:29:38;;;;;;;3.70;1.60;;;;;;;24.88;53.50;100093.46;91055;1270;137274;-71
2023/07/24 04:31:39;;;;;;;2.60;0.80;;;;;;;25.12;52.26;100092.91;91103;1270;22807;-71
2023/07/24 04:33:41;;;;;;;1.10;1.10;;;;;;;25.30;51.53;100092.77;91065;1270;137800;-71
2023/07/24 04:35:43;;;;;;;1.40;1.30;;;;;;;25.34;51.10;100092.81;91170;1270;22331;-70
2023/07/24 04:37:44;;;;;;;1.30;1.30;;;;;;;25.32;51.52;100094.16;91074;1270;138118;-71
2023/07/24 04:39:46;;;;;;;2.40;1.20;;;;;;;25.29;51.54;100094.27;91181;1270;23167;-71
2023/07/24 04:41:48;;;;;;;2.70;1.30;;;;;;;25.30;51.68;100091.39;90987;1272;137973;-71
2023/07/24 04:43:49;;;;;;;9.30;1.60;;;;;;;25.36;51.51;100090.34;91178;1270;22686;-71
2023/07/24 04:45:52;;;;;;;3.10;1.60;;;;;;;25.43;51.30;100086.05;91071;1270;137355;-70
2023/07/24 04:47:53;;;;;;;3.30;1.10;;;;;;;25.56;51.52;100081.52;91102;1260;22352;-70
2023/07/24 04:49:55;;;;;;;1.80;1.30;;;;;;;25.76;51.39;100075.59;91101;1270;137295;-70
2023/07/24 04:51:57;;;;;;;5.30;1.60;;;;;;;25.99;50.76;100071.92;91197;1270;22974;-71
2023/07/24 04:53:59;;;;;;;2.90;1.50;;;;;;;26.14;51.01;100074.73;91082;1271;137650;-71
2023/07/24 04:56:00;;;;;;;2.70;1.30;;;;;;;26.30;50.19;100080.09;91191;1270;22437;-70
2023/07/24 04:58:03;;;;;;;1.00;1.00;;;;;;;26.46;49.83;100079.83;91196;1271;22343;-70
2023/07/24 05:00:05;;;;;;;2.60;1.50;;;;;;;26.58;49.52;100078.23;91029;1271;137931;-71
2023/07/24 05:02:07;;;;;;;2.90;1.10;;;;;;;26.73;49.40;100076.13;91204;1271;23011;-72
2023/07/24 05:04:09;;;;;;;4.10;1.10;;;;;;;26.76;48.69;100076.71;91017;1271;138489;-70
2023/07/24 05:06:10;;;;;;;3.70;1.30;;;;;;;26.69;49.19;100077.07;91230;1271;23034;-73
2023/07/24 05:08:12;;;;;;;1.00;1.00;;;;;;;26.68;49.67;100080.37;91096;1271;137440;-71
2023/07/24 05:10:14;;;;;;;3.10;1.10;;;;;;;26.76;49.64;100076.55;91146;1270;23092;-71
2023/07/24 05:12:15;;;;;;;1.50;1.40;;;;;;;26.86;49.70;100069.86;91093;1270;139149;-71
2023/07/24 05:14:17;;;;;;;1.40;0.90;;;;;;;26.94;49.19;100067.34;91205;1271;22326;-71
2023/07/24 05:16:19;;;;;;;1.20;1.10;;;;;;;26.98;49.10;100062.81;91069;1270;138027;-70
2023/07/24 05:18:20;;;;;;;1.50;1.10;;;;;;;27.05;49.03;100061.77;91180;1270;22344;-70
2023/07/24 05:20:22;;;;;;;1.30;0.90;;;;;;;27.16;48.73;100057.43;91098;1270;138231;-70
2023/07/24 05:22:25;;;;;;;2.00;1.40;;;;;;;27.17;47.84;100059.44;91148;1271;22331;-70
2023/07/24 05:24:26;;;;;;;3.10;1.60;;;;;;;27.07;48.18;100058.55;91117;1270;138770;-71
2023/07/24 05:26:28;;;;;;;1.60;1.30;;;;;;;26.90;47.69;100059.22;91084;1271;23153;-69
2023/07/24 05:28:32;;;;;;;3.40;1.40;;;;;;;26.68;48.65;100056.20;91083;1271;139059;-71
2023/07/24 05:30:34;;;;;;;2.60;1.30;;;;;;;26.47;50.34;100057.66;91048;1272;22339;-70
2023/07/24 05:32:35;;;;;;;2.70;1.20;;;;;;;26.39;50.73;100056.71;91096;1271;137315;-70
2023/07/24 05:34:37;;;;;;;3.60;1.40;;;;;;;26.45;50.74;100056.01;91208;1270;22142;-70
2023/07/24 05:36:40;;;;;;;3.70;1.30;;;;;;;26.52;50.47;100058.05;91030;1270;137321;-70
2023/07/24 05:38:42;;;;;;;3.00;1.00;;;;;;;26.51;50.33;100059.83;91137;1270;22314;-70
2023/07/24 05:40:44;;;;;;;3.20;1.60;;;;;;;26.54;51.12;100058.20;90975;1271;137597;-71
2023/07/24 05:42:47;;;;;;;2.60;1.90;;;;;;;26.59;49.90;100055.43;91053;1271;22231;-71
2023/07/24 05:44:49;;;;;;;2.50;1.20;;;;;;;26.62;50.37;100056.05;91078;1270;138630;-70
2023/07/24 05:46:51;;;;;;;2.60;1.10;;;;;;;26.75;50.37;100052.52;91210;1270;22320;-70
2023/07/24 05:48:52;;;;;;;1.80;1.30;;;;;;;26.91;48.51;100048.42;90982;1270;137939;-70
2023/07/24 05:50:54;;;;;;;1.70;1.00;;;;;;;26.99;47.70;100046.77;90974;1272;22215;-70
2023/07/24 05:52:56;;;;;;;1.70;1.10;;;;;;;27.02;48.53;100043.13;90986;1271;137949;-70
2023/07/24 05:54:58;;;;;;;1.10;0.90;;;;;;;27.13;48.61;100040.63;91132;1267;22394;-71
2023/07/24 05:56:59;;;;;;;1.70;1.10;;;;;;;27.30;49.09;100035.36;91009;1270;137941;-70
2023/07/24 05:59:01;;;;;;;3.70;1.20;;;;;;;27.49;48.96;100032.86;91159;1271;22350;-70
2023/07/24 06:01:03;;;;;;;1.40;1.30;;;;;;;27.59;47.87;100026.27;91049;1271;137514;-71
2023/07/24 06:03:05;;;;;;;5.50;2.00;;;;;;;27.77;47.68;100032.65;91181;1270;22400;-71
2023/07/24 06:05:09;;;;;;;;;;;;;;;27.82;47.40;100028.48;91086;1270;137182;-70
2023/07/24 06:07:10;;;;;;;2.50;0.70;;;;;;;27.83;47.10;100028.41;91164;1270;22972;-71
2023/07/24 06:09:12;;;;;;;4.90;1.30;;;;;;;27.79;46.46;100027.19;91006;1271;137419;-71
2023/07/24 06:11:14;;;;;;;2.10;1.00;;;;;;;27.84;46.22;100023.11;91162;1259;23131;-71
2023/07/24 06:13:16;;;;;;;3.20;0.90;;;;;;;27.96;45.62;100021.95;90991;1272;137603;-70
2023/07/24 06:15:18;;;;;;;0.60;0.40;;;;;;;28.15;44.91;100019.36;91194;1270;23073;-70
2023/07/24 06:17:20;;;;;;;4.40;0.80;;;;;;;28.25;43.65;100010.88;90969;1271;137768;-70
2023/07/24 06:19:21;;;;;;;2.80;0.90;;;;;;;28.21;43.22;100010.91;91091;1271;22327;-71
2023/07/24 06:21:23;;;;;;;1.70;1.00;;;;;;;28.17;44.26;100010.31;90994;1270;137664;-70
2023/07/24 06:23:25;;;;;;;1.70;1.20;;;;;;;28.27;43.28;100007.38;91168;1270;22391;-71
2023/07/24 06:25:26;;;;;;;2.10;0.90;;;;;;;28.35;43.10;100008.24;90953;1270;137485;-70
2023/07/24 06:27:28;;;;;;;0.60;0.60;;;;;;;28.30;43.19;99994.45;91139;1270;22386;-70
2023/07/24 06:29:30;;;;;;;2.00;0.60;;;;;;;28.36;43.50;99994.64;91116;1270;137095;-71
2023/07/24 06:31:31;;;;;;;1.80;0.70;;;;;;;28.53;42.54;100000.91;91042;1261;23853;-71
2023/07/24 06:33:34;;;;;;;0.90;0.70;;;;;;;28.61;41.24;99997.08;91068;1270;137455;-71
2023/07/24 06:35:36;;;;;;;5.80;0.90;;;;;;;28.52;41.45;99996.77;91197;1270;22158;-71
2023/07/24 06:37:37;;;;;;;2.70;0.60;;;;;;;28.40;42.53;99993.30;90984;1272;139083;-71
2023/07/24 06:39:39;;;;;;;3.00;0.70;;;;;;;28.36;43.32;99992.71;91156;1270;22460;-70
2023/07/24 06:41:41;;;;;;;2.60;0.80;;;;;;;28.26;43.65;99980.86;91004;1270;137008;-71
2023/07/24 06:43:43;;;;;;;1.20;0.80;;;;;;;28.27;42.98;99991.57;91244;1271;22358;-72
2023/07/24 06:45:45;;;;;;;3.40;1.50;;;;;;;28.18;42.68;99993.17;90978;1271;137137;-70
2023/07/24 06:47:46;;;;;;;1.30;0.80;;;;;;;28.07;43.80;99989.34;91121;1271;22357;-71
2023/07/24 06:49:48;;;;;;;3.30;1.40;;;;;;;28.11;43.72;99987.79;91069;1270;137320;-71
2023/07/24 06:51:50;;;;;;;2.30;0.70;;;;;;;28.13;43.21;99983.29;91132;1271;22317;-72
2023/07/24 06:53:52;;;;;;;2.20;1.90;;;;;;;28.13;42.90;99985.09;90974;1258;138800;-73
2023/07/24 06:55:54;;;;;;;3.50;0.80;;;;;;;28.10;42.92;99984.23;91106;1271;22314;-71
2023/07/24 06:57:55;;;;;;;1.80;1.60;;;;;;;28.07;42.53;99979.55;91018;1271;137221;-74
2023/07/24 06:59:57;;;;;;;2.10;1.00;;;;;;;28.07;42.74;99980.70;91180;1270;22314;-71
2023/07/24 07:01:59;;;;;;;1.60;0.90;;;;;;;28.10;43.06;99978.73;91068;1271;137382;-71
2023/07/24 07:04:01;;;;;;;2.60;0.80;;;;;;;28.16;42.30;99979.20;91040;1271;22225;-69
2023/07/24 07:06:03;;;;;;;4.00;1.30;;;;;;;28.21;41.73;99976.23;91129;1271;22829;-70
2023/07/24 07:08:05;;;;;;;4.80;0.90;;;;;;;28.25;41.82;99975.02;91070;1271;137314;-69
2023/07/24 07:10:07;;;;;;;1.20;1.00;;;;;;;28.30;41.42;99975.81;91193;1271;22236;-69
2023/07/24 07:12:09;;;;;;;0.40;0.40;;;;;;;28.29;41.12;99970.07;91103;1271;137798;-68
2023/07/24 07:14:10;;;;;;;1.10;0.40;;;;;;;28.22;41.58;99970.63;91195;1270;22327;-69
2023/07/24 07:16:12;;;;;;;1.50;1.00;;;;;;;28.17;42.04;99970.80;91059;1270;138128;-68
2023/07/24 07:18:14;;;;;;;1.70;0.70;;;;;;;28.19;41.88;99969.27;91126;1270;22316;-68
2023/07/24 07:20:17;;;;;;;1.20;0.60;;;;;;;28.23;41.97;99967.51;91033;1271;137636;-67
2023/07/24 07:22:18;;;;;;;1.60;0.90;;;;;;;28.16;41.78;99961.35;91151;1271;23053;-67
2023/07/24 07:24:21;;;;;;;1.10;0.90;;;;;;;28.20;42.22;99968.75;91062;1260;137432;-67
2023/07/24 07:26:22;;;;;;;5.40;1.10;;;;;;;28.21;42.48;99966.58;90987;1271;22397;-67
2023/07/24 07:28:24;;;;;;;1.50;1.20;;;;;;;28.27;42.64;99965.26;91033;1271;137383;-68
2023/07/24 07:30:26;;;;;;;1.30;0.80;;;;;;;28.42;42.93;99963.65;91168;1271;22398;-67
2023/07/24 07:32:27;;;;;;;2.70;1.00;;;;;;;28.61;42.59;99961.14;91058;1267;139037;-68
2023/07/24 07:34:29;;;;;;;1.60;0.70;;;;;;;28.74;41.87;99959.02;91170;1256;22249;-68
2023/07/24 07:36:31;;;;;;;2.70;1.00;;;;;;;28.74;41.94;99961.77;91051;1270;138080;-68
2023/07/24 07:38:33;;;;;;;1.50;0.70;;;;;;;28.68;42.70;99964.42;91200;1271;22352;-69
2023/07/24 07:40:37;;;;;;;4.80;0.80;;;;;;;28.62;42.68;99964.30;90965;1268;138534;-69
2023/07/24 07:42:39;;;;;;;1.70;0.90;;;;;;;28.54;42.66;99961.17;91087;1272;22328;-67
2023/07/24 07:44:43;;;;;;;3.50;1.00;;;;;;;28.38;43.30;99952.89;91040;1260;137479;-68
2023/07/24 07:46:44;;;;;;;2.90;0.80;;;;;;;28.34;43.56;99954.39;91277;1271;23099;-68
2023/07/24 07:48:47;;;;;;;1.90;1.00;;;;;;;28.22;43.20;99955.38;90960;1272;138206;-68
2023/07/24 07:50:52;;;;;;;4.30;1.00;;;;;;;28.03;43.27;99950.14;91040;1272;22350;-67
2023/07/24 07:52:53;;;;;;;0.80;0.80;;;;;;;27.84;43.87;99950.42;90999;1272;137791;-70
2023/07/24 07:54:55;;;;;;;3.50;1.00;;;;;;;27.74;44.19;99953.10;91023;1272;22118;-68
2023/07/24 07:57:00;;;;;;;1.90;1.30;;;;;;;27.61;44.18;99954.89;90994;1258;139143;-68
2023/07/24 07:59:01;;;;;;;2.40;1.30;;;;;;;27.47;44.41;99952.51;90989;1273;22249;-68
2023/07/24 08:01:06;;;;;;;2.10;1.50;;;;;;;27.32;44.48;99954.70;90913;1272;137465;-68
2023/07/24 08:03:08;;;;;;;2.90;1.40;;;;;;;27.25;45.26;99951.09;91086;1272;22300;-68
2023/07/24 08:05:10;;;;;;;1.30;1.20;;;;;;;27.21;45.08;99948.92;90935;1271;139775;-67
2023/07/24 08:07:21;;;;;;;3.00;1.60;;;;;;;27.20;45.15;99952.39;91009;1272;22412;-67
2023/07/24 08:09:24;;;;;;;1.10;0.80;;;;;;;27.16;45.10;99949.30;90982;1271;138736;-67
2023/07/24 08:11:25;;;;;;;1.00;1.00;;;;;;;27.15;45.64;99952.45;91109;1271;22303;-70
2023/07/24 08:13:27;;;;;;;1.30;1.30;;;;;;;27.19;46.07;99953.90;90892;1272;137763;-66
2023/07/24 08:15:35;;;;;;;5.30;1.30;;;;;;;27.25;45.64;99952.96;91066;1271;22355;-68
2023/07/24 08:17:36;;;;;;;1.10;1.00;;;;;;;27.29;45.70;99943.73;91000;1271;137690;-69
2023/07/24 08:19:38;;;;;;;1.80;1.60;;;;;;;27.33;45.53;99944.41;91115;1272;23102;-68
2023/07/24 08:21:40;;;;;;;2.90;1.20;;;;;;;27.34;44.89;99952.42;90974;1271;138204;-67
2023/07/24 08:23:42;;;;;;;1.60;1.50;;;;;;;27.31;45.29;99948.29;91139;1271;22153;-68
2023/07/24 08:25:55;;;;;;;6.10;1.60;;;;;;;27.34;45.95;99946.90;90932;1271;137487;-67
2023/07/24 08:27:57;;;;;;;1.80;1.10;;;;;;;27.42;46.07;99945.06;91103;1271;22800;-69
2023/07/24 08:30:07;;;;;;;3.20;1.80;;;;;;;27.47;45.71;99946.81;91030;1271;23381;-64
2023/07/24 08:32:08;;;;;;;1.70;1.60;;;;;;;27.51;45.56;99949.89;90995;1272;140165;-67
2023/07/24 08:34:10;;;;;;;2.90;1.30;;;;;;;27.55;46.07;99949.73;91122;1270;22276;-68
2023/07/24 08:36:12;;;;;;;1.70;1.60;;;;;;;27.64;46.20;99950.05;91062;1270;138460;-66
2023/07/24 08:38:14;;;;;;;2.80;1.20;;;;;;;27.74;45.31;99944.13;91263;1270;22525;-68
2023/07/24 08:40:16;;;;;;;1.90;1.10;;;;;;;27.76;44.74;99939.40;91101;1270;138281;-68
2023/07/24 08:42:20;;;;;;;2.10;1.30;;;;;;;27.75;44.77;99942.68;91152;1270;22352;-68
2023/07/24 08:44:24;;;;;;;2.20;1.80;;;;;;;27.73;45.45;99942.60;91045;1271;139384;-67
2023/07/24 08:46:27;;;;;;;3.70;1.70;;;;;;;27.73;45.68;99951.73;91145;1272;22300;-68
2023/07/24 08:48:35;;;;;;;2.00;1.20;;;;;;;27.72;46.04;99949.42;91020;1270;138003;-69
2023/07/24 08:50:37;;;;;;;3.40;2.00;;;;;;;27.72;46.37;99940.43;91209;1271;22309;-67
2023/07/24 08:52:39;;;;;;;3.30;1.30;;;;;;;27.74;45.64;99940.21;91084;1270;137136;-67
2023/07/24 08:54:41;;;;;;;2.10;1.40;;;;;;;27.75;45.95;99939.37;91123;1270;23164;-67
2023/07/24 08:56:47;;;;;;;2.00;1.90;;;;;;;27.72;46.82;99932.92;91063;1272;137548;-70
2023/07/24 08:58:49;;;;;;;1.80;1.70;;;;;;;27.66;47.00;99924.49;91194;1271;22967;-68
2023/07/24 09:00:51;;;;;;;1.60;1.50;;;;;;;27.59;46.47;99927.40;91124;1270;138488;-67
2023/07/24 09:02:53;;;;;;;1.60;1.40;;;;;;;27.50;46.61;99923.89;91225;1273;22304;-68
2023/07/24 09:04:54;;;;;;;2.00;1.80;;;;;;;27.41;46.97;99923.02;91109;1270;138089;-68
2023/07/24 09:06:58;;;;;;;1.30;1.30;;;;;;;27.37;47.68;99922.20;91252;1272;22321;-69
2023/07/24 09:09:01;;;;;;;3.30;1.70;;;;;;;27.36;48.09;99921.77;91138;1270;137836;-67
2023/07/24 09:11:04;;;;;;;4.40;1.70;;;;;;;27.37;47.58;99916.60;91140;1268;22408;-68
2023/07/24 09:13:07;;;;;;;3.40;2.00;;;;;;;27.38;47.92;99915.61;91025;1271;137441;-67
2023/07/24 09:15:09;;;;;;;2.80;1.70;;;;;;;27.39;48.54;99919.63;91148;1270;22388;-68
2023/07/24 09:17:11;;;;;;;4.50;1.70;;;;;;;27.43;48.03;99917.18;91068;1270;137849;-67
2023/07/24 09:19:19;;;;;;;2.50;1.90;;;;;;;27.47;47.91;99916.86;91063;1272;22248;-68
2023/07/24 09:21:32;;;;;;;3.50;2.00;;;;;;;27.53;48.36;99910.69;90987;1272;137519;-69
2023/07/24 09:23:34;;;;;;;2.10;1.50;;;;;;;27.59;48.26;99909.08;91164;1271;22598;-69
2023/07/24 09:25:38;;;;;;;1.20;1.20;;;;;;;27.64;48.44;99903.79;91032;1271;137285;-69